createdAt,value
2022-11-30T00:01:22.179Z,99892.60
2022-11-30T00:03:52.785Z,99894.60
2022-11-30T00:06:23.116Z,99896.80
2022-11-30T00:08:56.023Z,99889.40
2022-11-30T00:11:26.120Z,99895.40
2022-11-30T00:13:53.020Z,99895.20
2022-11-30T00:16:19.618Z,99900.80
2022-11-30T00:18:46.076Z,99902.20
2022-11-30T00:21:15.247Z,99901.20
2022-11-30T00:23:44.668Z,99900.00
2022-11-30T00:26:15.127Z,99904.40
2022-11-30T00:28:43.190Z,99902.00
2022-11-30T00:31:14.127Z,99903.00
2022-11-30T00:33:41.208Z,99896.40
2022-11-30T00:36:18.107Z,99899.40
2022-11-30T00:38:45.650Z,99902.40
2022-11-30T00:41:12.884Z,99901.80
2022-11-30T00:43:39.439Z,99906.60
2022-11-30T00:46:09.183Z,99909.60
2022-11-30T00:48:36.931Z,99907.20
2022-11-30T00:51:04.361Z,99907.00
2022-11-30T00:53:31.684Z,99913.40
2022-11-30T00:55:58.093Z,99908.40
2022-11-30T00:58:24.541Z,99907.40
2022-11-30T01:00:51.127Z,99906.40
2022-11-30T01:03:17.750Z,99905.60
2022-11-30T01:05:44.300Z,99909.60
2022-11-30T01:08:12.750Z,99912.60
2022-11-30T01:10:42.823Z,99915.00
2022-11-30T01:13:14.307Z,99913.60
2022-11-30T01:15:44.515Z,99911.00
2022-11-30T01:18:11.670Z,99913.00
2022-11-30T01:20:42.987Z,99914.80
2022-11-30T01:23:10.622Z,99916.00
2022-11-30T01:25:37.495Z,99917.60
2022-11-30T01:28:04.092Z,99924.40
2022-11-30T01:30:30.602Z,99924.20
2022-11-30T01:33:02.917Z,99925.80
2022-11-30T01:35:29.371Z,99928.60
2022-11-30T01:37:55.862Z,99932.60
2022-11-30T01:40:22.539Z,99929.20
2022-11-30T01:42:49.064Z,99929.20
2022-11-30T01:45:15.589Z,99926.00
2022-11-30T01:47:51.130Z,99926.40
2022-11-30T01:50:34.385Z,99929.40
2022-11-30T01:53:03.570Z,99928.20
2022-11-30T01:55:44.759Z,99928.00
2022-11-30T01:58:18.703Z,99919.00
2022-11-30T02:00:47.848Z,99920.40
2022-11-30T02:03:28.691Z,99920.00
2022-11-30T02:05:55.098Z,99923.20
2022-11-30T02:08:22.422Z,99921.20
2022-11-30T02:14:46.934Z,99932.80
2022-11-30T02:17:28.534Z,99931.00
2022-11-30T02:20:28.139Z,99933.20
2022-11-30T02:23:21.757Z,99936.80
2022-11-30T02:26:16.173Z,99938.80
2022-11-30T02:29:27.024Z,99939.80
2022-11-30T02:32:09.896Z,99941.40
2022-11-30T02:34:40.610Z,99941.40
2022-11-30T02:37:09.922Z,99946.00
2022-11-30T02:39:36.462Z,99938.60
2022-11-30T02:42:03.267Z,99936.80
2022-11-30T02:44:30.062Z,99936.60
2022-11-30T02:47:18.742Z,99930.80
2022-11-30T02:50:02.060Z,99934.00
2022-11-30T02:52:31.609Z,99939.40
2022-11-30T02:55:08.838Z,99942.20
2022-11-30T02:57:36.150Z,99950.20
2022-11-30T03:00:08.872Z,99938.80
2022-11-30T03:02:35.576Z,99938.00
2022-11-30T03:05:02.057Z,99939.40
2022-11-30T03:07:28.437Z,99946.80
2022-11-30T03:09:54.889Z,99949.20
2022-11-30T03:12:21.681Z,99952.80
2022-11-30T03:14:48.300Z,99962.00
2022-11-30T03:17:15.076Z,99961.80
2022-11-30T03:19:41.494Z,99961.20
2022-11-30T03:22:07.961Z,99959.20
2022-11-30T03:24:34.442Z,99962.80
2022-11-30T03:27:01.054Z,99963.80
2022-11-30T03:29:27.466Z,99958.00
2022-11-30T03:31:53.954Z,99963.00
2022-11-30T03:34:20.562Z,99961.60
2022-11-30T03:36:46.993Z,99957.80
2022-11-30T03:39:13.442Z,99959.00
2022-11-30T03:41:39.875Z,99961.00
2022-11-30T03:44:06.293Z,99962.00
2022-11-30T03:46:34.104Z,99962.20
2022-11-30T03:49:00.734Z,99962.40
2022-11-30T03:51:27.422Z,99972.60
2022-11-30T03:53:53.754Z,99970.00
2022-11-30T03:56:20.479Z,99970.20
2022-11-30T03:58:46.918Z,99971.40
2022-11-30T04:01:23.654Z,99976.60
2022-11-30T04:03:52.074Z,99972.60
2022-11-30T04:06:20.438Z,99975.40
2022-11-30T04:08:47.227Z,99970.80
2022-11-30T04:11:14.281Z,99970.80
2022-11-30T04:13:42.298Z,99968.20
2022-11-30T04:16:09.797Z,99968.40
2022-11-30T04:18:38.456Z,99971.40
2022-11-30T04:21:07.189Z,99970.20
2022-11-30T04:23:37.903Z,99971.40
2022-11-30T04:26:08.714Z,99979.20
2022-11-30T04:28:35.646Z,99979.60
2022-11-30T04:31:02.824Z,99975.40
2022-11-30T04:33:30.535Z,99975.60
2022-11-30T04:36:01.768Z,99977.80
2022-11-30T04:38:29.593Z,99976.40
2022-11-30T04:40:56.516Z,99977.80
2022-11-30T04:43:23.798Z,99980.40
2022-11-30T04:45:51.027Z,99978.80
2022-11-30T04:48:19.281Z,99974.80
2022-11-30T04:50:46.025Z,99982.80
2022-11-30T04:53:12.618Z,99988.40
2022-11-30T04:55:39.575Z,99988.40
2022-11-30T04:58:06.953Z,99984.20
2022-11-30T05:00:34.588Z,99984.00
2022-11-30T05:03:01.108Z,99986.20
2022-11-30T05:05:27.703Z,99991.60
2022-11-30T05:07:59.570Z,99989.60
2022-11-30T05:10:28.003Z,99991.00
2022-11-30T05:12:54.684Z,99991.40
2022-11-30T05:15:21.626Z,99992.00
2022-11-30T05:17:48.178Z,99993.00
2022-11-30T05:20:14.786Z,99987.00
2022-11-30T05:22:41.210Z,99992.40
2022-11-30T05:25:08.277Z,99991.40
2022-11-30T05:27:35.338Z,99988.20
2022-11-30T05:30:02.285Z,99988.00
2022-11-30T05:32:28.790Z,99992.60
2022-11-30T05:34:55.498Z,99994.20
2022-11-30T05:37:22.260Z,99994.40
2022-11-30T05:39:48.713Z,99992.60
2022-11-30T05:42:15.089Z,100000.40
2022-11-30T05:44:41.497Z,100000.20
2022-11-30T05:47:07.884Z,100000.40
2022-11-30T05:49:34.334Z,99998.40
2022-11-30T05:52:00.718Z,100007.80
2022-11-30T05:54:27.102Z,100009.40
2022-11-30T05:56:55.154Z,100011.80
2022-11-30T05:59:22.963Z,100010.40
2022-11-30T06:01:52.510Z,100013.80
2022-11-30T06:04:21.819Z,100015.20
2022-11-30T06:06:49.545Z,100015.80
2022-11-30T06:09:16.175Z,100018.40
2022-11-30T06:11:42.570Z,100023.00
2022-11-30T06:14:09.202Z,100028.80
2022-11-30T06:16:39.869Z,100024.80
2022-11-30T06:19:06.507Z,100022.20
2022-11-30T06:21:33.127Z,100023.20
2022-11-30T06:23:59.617Z,100023.20
2022-11-30T06:26:26.204Z,100018.60
2022-11-30T06:28:52.595Z,100025.00
2022-11-30T06:31:19.115Z,100028.20
2022-11-30T06:33:45.544Z,100030.60
2022-11-30T06:36:12.154Z,100031.80
2022-11-30T06:38:38.561Z,100041.60
2022-11-30T06:41:09.031Z,100044.20
2022-11-30T06:43:38.749Z,100049.80
2022-11-30T06:46:06.952Z,100047.00
2022-11-30T06:48:35.408Z,100048.00
2022-11-30T06:51:06.777Z,100049.00
2022-11-30T06:53:33.259Z,100041.60
2022-11-30T06:55:59.742Z,100048.40
2022-11-30T06:58:26.285Z,100053.60
2022-11-30T07:00:53.009Z,100050.80
2022-11-30T07:03:19.512Z,100052.80
2022-11-30T07:05:46.815Z,100052.20
2022-11-30T07:08:17.866Z,100055.00
2022-11-30T07:10:46.583Z,100056.40
2022-11-30T07:13:16.596Z,100056.20
2022-11-30T07:15:43.830Z,100060.00
2022-11-30T07:18:11.378Z,100066.20
2022-11-30T07:20:38.711Z,100062.20
2022-11-30T07:23:24.562Z,100065.20
2022-11-30T07:26:07.962Z,100073.40
2022-11-30T07:28:46.530Z,100077.80
2022-11-30T07:31:30.237Z,100072.60
2022-11-30T07:33:59.124Z,100067.80
2022-11-30T07:36:27.682Z,100073.40
2022-11-30T07:38:54.190Z,100065.20
2022-11-30T07:41:20.582Z,100062.80
2022-11-30T07:43:47.040Z,100064.40
2022-11-30T07:46:15.786Z,100069.40
2022-11-30T07:48:44.591Z,100070.60
2022-11-30T07:51:16.611Z,100073.60
2022-11-30T07:53:43.417Z,100075.00
2022-11-30T07:56:13.889Z,100071.40
2022-11-30T07:58:41.705Z,100069.60
2022-11-30T08:01:13.119Z,100079.00
2022-11-30T08:03:39.731Z,100072.20
2022-11-30T08:06:16.988Z,100066.40
2022-11-30T08:08:45.885Z,100066.40
2022-11-30T08:11:17.678Z,100066.80
2022-11-30T08:13:44.434Z,100069.20
2022-11-30T08:16:18.797Z,100081.60
2022-11-30T08:18:45.739Z,100078.20
2022-11-30T08:21:15.913Z,100075.60
2022-11-30T08:23:48.852Z,100079.00
2022-11-30T08:26:23.320Z,100081.00
2022-11-30T08:28:51.711Z,100082.60
2022-11-30T08:31:23.638Z,100086.00
2022-11-30T08:33:50.388Z,100080.80
2022-11-30T08:36:21.293Z,100081.80
2022-11-30T08:38:48.987Z,100076.80
2022-11-30T08:41:19.662Z,100073.80
2022-11-30T08:43:47.082Z,100072.80
2022-11-30T08:49:20.468Z,100068.40
2022-11-30T08:54:35.639Z,100073.00
2022-11-30T08:57:02.041Z,100067.20
2022-11-30T08:59:32.011Z,100072.80
2022-11-30T09:01:58.446Z,100076.00
2022-11-30T09:04:24.979Z,100069.80
2022-11-30T09:06:51.380Z,100074.80
2022-11-30T09:09:17.767Z,100072.80
2022-11-30T09:11:44.356Z,100068.40
2022-11-30T09:14:10.958Z,100070.20
2022-11-30T09:16:37.690Z,100079.00
2022-11-30T09:19:04.107Z,100078.60
2022-11-30T09:21:30.659Z,100084.40
2022-11-30T09:23:57.456Z,100081.60
2022-11-30T09:26:25.477Z,100077.00
2022-11-30T09:28:53.700Z,100077.80
2022-11-30T09:31:26.425Z,100068.60
2022-11-30T09:33:56.290Z,100070.40
2022-11-30T09:36:27.091Z,100072.60
2022-11-30T09:38:55.468Z,100079.40
2022-11-30T09:41:34.023Z,100087.60
2022-11-30T09:44:19.018Z,100076.00
2022-11-30T09:47:27.494Z,100080.60
2022-11-30T09:50:01.443Z,100080.20
2022-11-30T09:52:42.631Z,100079.60
2022-11-30T09:55:13.923Z,100081.60
2022-11-30T09:57:49.702Z,100082.00
2022-11-30T10:00:22.455Z,100084.00
2022-11-30T10:02:55.688Z,100091.80
2022-11-30T10:05:28.783Z,100086.40
2022-11-30T10:08:30.094Z,100088.20
2022-11-30T10:11:52.060Z,100089.80
2022-11-30T10:15:00.459Z,100085.00
2022-11-30T10:17:54.511Z,100087.20
2022-11-30T10:20:50.000Z,100089.80
2022-11-30T10:23:55.586Z,100083.80
2022-11-30T10:26:34.026Z,100085.00
2022-11-30T10:29:27.148Z,100081.20
2022-11-30T10:31:59.129Z,100088.60
2022-11-30T10:34:36.341Z,100083.80
2022-11-30T10:37:26.929Z,100084.20
2022-11-30T10:40:03.228Z,100080.00
2022-11-30T10:42:42.276Z,100084.00
2022-11-30T10:45:14.415Z,100093.00
2022-11-30T10:47:56.799Z,100093.60
2022-11-30T10:50:28.489Z,100088.60
2022-11-30T10:53:00.015Z,100086.00
2022-11-30T10:55:35.974Z,100091.20
2022-11-30T10:58:13.154Z,100085.00
2022-11-30T11:00:39.631Z,100083.60
2022-11-30T11:03:25.435Z,100084.40
2022-11-30T11:06:23.889Z,100078.00
2022-11-30T11:08:50.851Z,100080.60
2022-11-30T11:11:38.843Z,100076.80
2022-11-30T11:14:20.390Z,100065.60
2022-11-30T11:17:00.036Z,100066.80
2022-11-30T11:19:40.670Z,100071.60
2022-11-30T11:22:19.525Z,100065.00
2022-11-30T11:24:48.124Z,100059.80
2022-11-30T11:27:31.688Z,100062.60
2022-11-30T11:30:17.244Z,100061.00
2022-11-30T11:33:18.064Z,100063.60
2022-11-30T11:36:12.960Z,100066.20
2022-11-30T11:38:46.363Z,100063.60
2022-11-30T11:41:25.500Z,100067.00
2022-11-30T11:44:09.852Z,100067.40
2022-11-30T11:46:59.123Z,100077.20
2022-11-30T11:49:32.449Z,100075.40
2022-11-30T11:52:10.781Z,100073.40
2022-11-30T11:54:57.223Z,100071.00
2022-11-30T11:57:56.219Z,100068.40
2022-11-30T12:00:25.301Z,100072.40
2022-11-30T12:03:08.680Z,100069.00
2022-11-30T12:05:44.088Z,100070.60
2022-11-30T12:08:30.899Z,100076.80
2022-11-30T12:11:22.316Z,100080.60
2022-11-30T12:13:50.148Z,100077.80
2022-11-30T12:16:45.376Z,100081.80
2022-11-30T12:19:27.021Z,100087.40
2022-11-30T12:22:49.436Z,100083.40
2022-11-30T12:25:29.214Z,100081.80
2022-11-30T12:28:27.213Z,100083.40
2022-11-30T12:31:11.833Z,100088.40
2022-11-30T12:34:12.338Z,100087.80
2022-11-30T12:37:00.523Z,100094.60
2022-11-30T12:39:35.828Z,100099.00
2022-11-30T12:42:17.130Z,100097.40
2022-11-30T12:44:59.125Z,100094.00
2022-11-30T12:47:54.541Z,100097.60
2022-11-30T12:51:02.084Z,100100.60
2022-11-30T12:54:05.710Z,100099.80
2022-11-30T12:57:04.356Z,100093.60
2022-11-30T13:00:01.954Z,100091.40
2022-11-30T13:03:04.856Z,100097.00
2022-11-30T13:06:17.328Z,100095.40
2022-11-30T13:09:02.419Z,100094.60
2022-11-30T13:11:40.310Z,100094.00
2022-11-30T13:14:16.976Z,100090.60
2022-11-30T13:16:46.115Z,100087.60
2022-11-30T13:20:07.694Z,100083.20
2022-11-30T13:22:48.119Z,100083.20
2022-11-30T13:26:05.755Z,100085.20
2022-11-30T13:28:38.025Z,100083.40
2022-11-30T13:31:14.502Z,100080.20
2022-11-30T13:33:53.579Z,100080.00
2022-11-30T13:36:39.382Z,100081.20
2022-11-30T13:39:14.834Z,100077.60
2022-11-30T13:41:45.488Z,100074.80
2022-11-30T13:44:36.915Z,100079.80
2022-11-30T13:47:17.402Z,100086.00
2022-11-30T13:49:45.242Z,100079.00
2022-11-30T13:52:24.117Z,100079.40
2022-11-30T13:54:57.348Z,100077.20
2022-11-30T13:57:29.839Z,100084.00
2022-11-30T14:00:02.052Z,100086.80
2022-11-30T14:02:36.284Z,100083.40
2022-11-30T14:05:23.103Z,100081.40
2022-11-30T14:07:52.529Z,100090.40
2022-11-30T14:10:31.962Z,100087.00
2022-11-30T14:13:04.527Z,100093.80
2022-11-30T14:15:37.031Z,100096.40
2022-11-30T14:18:21.917Z,100095.60
2022-11-30T14:21:14.014Z,100096.00
2022-11-30T14:23:50.447Z,100094.00
2022-11-30T14:26:43.873Z,100101.40
2022-11-30T14:29:39.947Z,100103.00
2022-11-30T14:32:37.755Z,100094.60
2022-11-30T14:35:23.121Z,100100.20
2022-11-30T14:37:59.573Z,100097.80
2022-11-30T14:40:33.408Z,100093.20
2022-11-30T14:43:04.047Z,100093.40
2022-11-30T14:45:33.829Z,100098.40
2022-11-30T14:48:13.808Z,100102.80
2022-11-30T14:50:57.260Z,100099.80
2022-11-30T14:53:38.964Z,100113.40
2022-11-30T14:56:29.436Z,100113.80
2022-11-30T14:59:35.603Z,100105.00
2022-11-30T15:02:13.248Z,100107.00
2022-11-30T15:04:39.863Z,100102.20
2022-11-30T15:07:14.435Z,100108.60
2022-11-30T15:09:46.638Z,100110.00
2022-11-30T15:12:21.022Z,100113.80
2022-11-30T15:15:26.351Z,100118.20
2022-11-30T15:17:57.858Z,100109.00
2022-11-30T15:20:45.272Z,100114.00
2022-11-30T15:23:16.001Z,100116.40
2022-11-30T15:25:50.503Z,100114.60
2022-11-30T15:28:54.384Z,100116.60
2022-11-30T15:31:21.202Z,100114.60
2022-11-30T15:33:50.501Z,100111.40
2022-11-30T15:36:32.407Z,100112.60
2022-11-30T15:39:06.244Z,100110.80
2022-11-30T15:41:35.882Z,100117.00
2022-11-30T15:44:02.448Z,100108.80
2022-11-30T15:46:39.998Z,100115.40
2022-11-30T15:49:32.595Z,100122.20
2022-11-30T15:52:15.626Z,100121.80
2022-11-30T15:54:55.134Z,100114.80
2022-11-30T15:57:26.270Z,100112.80
2022-11-30T16:00:19.043Z,100120.40
2022-11-30T16:02:45.870Z,100120.40
2022-11-30T16:05:14.423Z,100117.80
2022-11-30T16:08:02.839Z,100120.00
2022-11-30T16:10:37.914Z,100125.20
2022-11-30T16:13:05.834Z,100123.00
2022-11-30T16:15:36.458Z,100122.60
2022-11-30T16:18:25.499Z,100121.00
2022-11-30T16:21:01.171Z,100128.20
2022-11-30T16:23:28.692Z,100122.00
2022-11-30T16:25:55.295Z,100122.40
2022-11-30T16:28:23.125Z,100126.00
2022-11-30T16:30:51.161Z,100124.40
2022-11-30T16:33:25.074Z,100129.20
2022-11-30T16:35:57.056Z,100129.60
2022-11-30T16:38:25.574Z,100132.80
2022-11-30T16:40:56.035Z,100128.40
2022-11-30T16:43:26.172Z,100123.40
2022-11-30T16:45:52.786Z,100126.80
2022-11-30T16:48:19.941Z,100131.60
2022-11-30T16:50:46.622Z,100133.40
2022-11-30T16:53:17.397Z,100136.20
2022-11-30T16:55:44.523Z,100135.60
2022-11-30T16:58:10.919Z,100143.80
2022-11-30T17:00:40.468Z,100134.40
2022-11-30T17:03:19.897Z,100139.00
2022-11-30T17:05:47.190Z,100142.20
2022-11-30T17:08:13.714Z,100147.40
2022-11-30T17:10:40.328Z,100145.00
2022-11-30T17:13:07.264Z,100145.60
2022-11-30T17:15:33.673Z,100145.20
2022-11-30T17:18:00.223Z,100149.60
2022-11-30T17:20:27.958Z,100148.00
2022-11-30T17:22:54.346Z,100151.20
2022-11-30T17:25:23.467Z,100151.20
2022-11-30T17:27:51.369Z,100145.20
2022-11-30T17:30:21.775Z,100147.20
2022-11-30T17:32:48.417Z,100146.00
2022-11-30T17:35:15.031Z,100146.20
2022-11-30T17:37:41.437Z,100147.00
2022-11-30T17:40:13.038Z,100149.00
2022-11-30T17:42:40.004Z,100152.00
2022-11-30T17:45:07.382Z,100154.60
2022-11-30T17:47:33.832Z,100151.60
2022-11-30T17:50:00.226Z,100154.00
2022-11-30T17:52:26.747Z,100155.40
2022-11-30T17:54:53.140Z,100154.80
2022-11-30T17:57:19.530Z,100157.80
2022-11-30T17:59:46.003Z,100157.60
2022-11-30T18:02:12.459Z,100165.40
2022-11-30T18:04:39.654Z,100166.60
2022-11-30T18:07:06.223Z,100165.80
2022-11-30T18:09:37.786Z,100160.60
2022-11-30T18:12:07.529Z,100159.40
2022-11-30T18:14:34.098Z,100160.00
2022-11-30T18:17:00.576Z,100159.80
2022-11-30T18:19:27.046Z,100161.80
2022-11-30T18:21:55.292Z,100165.20
2022-11-30T18:24:25.199Z,100162.20
2022-11-30T18:26:52.581Z,100162.80
2022-11-30T18:29:20.409Z,100165.60
2022-11-30T18:31:48.297Z,100163.60
2022-11-30T18:34:15.237Z,100163.40
2022-11-30T18:36:41.902Z,100171.00
2022-11-30T18:39:08.706Z,100174.60
2022-11-30T18:41:35.166Z,100176.60
2022-11-30T18:44:01.552Z,100178.80
2022-11-30T18:46:28.025Z,100178.20
2022-11-30T18:48:54.674Z,100179.40
2022-11-30T18:51:26.156Z,100176.20
2022-11-30T18:53:59.394Z,100182.60
2022-11-30T18:56:29.850Z,100181.20
2022-11-30T18:58:59.958Z,100176.00
2022-11-30T19:01:28.437Z,100174.40
2022-11-30T19:03:58.607Z,100178.20
2022-11-30T19:06:32.561Z,100177.00
2022-11-30T19:09:02.261Z,100177.60
2022-11-30T19:11:28.986Z,100173.40
2022-11-30T19:14:00.234Z,100175.20
2022-11-30T19:16:29.265Z,100177.00
2022-11-30T19:19:00.303Z,100176.40
2022-11-30T19:21:27.354Z,100178.20
2022-11-30T19:23:54.872Z,100182.60
2022-11-30T19:26:21.295Z,100175.20
2022-11-30T19:28:47.722Z,100183.20
2022-11-30T19:31:19.523Z,100180.60
2022-11-30T19:33:50.154Z,100178.20
2022-11-30T19:36:29.288Z,100185.40
2022-11-30T19:38:58.847Z,100184.00
2022-11-30T19:41:25.856Z,100183.80
2022-11-30T19:44:02.796Z,100183.00
2022-11-30T19:46:31.927Z,100185.20
2022-11-30T19:49:01.320Z,100183.60
2022-11-30T19:51:30.263Z,100181.80
2022-11-30T19:53:57.622Z,100185.80
2022-11-30T19:56:25.359Z,100194.40
2022-11-30T19:58:52.669Z,100191.40
2022-11-30T20:01:23.910Z,100199.20
2022-11-30T20:03:52.923Z,100196.80
2022-11-30T20:06:20.572Z,100201.00
2022-11-30T20:08:47.105Z,100203.60
2022-11-30T20:11:15.860Z,100204.40
2022-11-30T20:13:44.190Z,100203.00
2022-11-30T20:16:14.626Z,100205.20
2022-11-30T20:18:46.282Z,100204.40
2022-11-30T20:21:17.913Z,100203.20
2022-11-30T20:23:46.989Z,100212.80
2022-11-30T20:26:22.449Z,100207.40
2022-11-30T20:28:51.006Z,100211.00
2022-11-30T20:31:21.043Z,100209.80
2022-11-30T20:33:48.676Z,100211.80
2022-11-30T20:36:17.425Z,100214.60
2022-11-30T20:38:44.601Z,100212.40
2022-11-30T20:41:15.723Z,100207.80
2022-11-30T20:43:42.880Z,100211.40
2022-11-30T20:46:21.781Z,100210.80
2022-11-30T20:48:49.059Z,100216.20
2022-11-30T20:51:36.341Z,100217.20
2022-11-30T20:54:08.893Z,100218.20
2022-11-30T20:56:37.437Z,100218.60
2022-11-30T20:59:08.259Z,100220.80
2022-11-30T21:01:34.959Z,100221.80
2022-11-30T21:04:01.722Z,100215.00
2022-11-30T21:06:30.378Z,100216.20
2022-11-30T21:08:58.104Z,100214.80
2022-11-30T21:11:26.113Z,100218.20
2022-11-30T21:13:52.962Z,100217.20
2022-11-30T21:16:27.640Z,100212.60
2022-11-30T21:18:55.786Z,100215.80
2022-11-30T21:21:25.669Z,100204.80
2022-11-30T21:23:52.376Z,100217.20
2022-11-30T21:26:25.610Z,100215.80
2022-11-30T21:28:56.052Z,100214.20
2022-11-30T21:31:23.649Z,100211.40
2022-11-30T21:33:53.648Z,100209.80
2022-11-30T21:36:22.277Z,100207.40
2022-11-30T21:39:04.462Z,100206.40
2022-11-30T21:41:33.922Z,100208.60
2022-11-30T21:44:00.601Z,100208.80
2022-11-30T21:46:27.026Z,100212.20
2022-11-30T21:48:53.473Z,100213.20
2022-11-30T21:51:27.861Z,100204.40
2022-11-30T21:53:57.867Z,100205.60
2022-11-30T21:56:34.468Z,100209.00
2022-11-30T21:59:04.480Z,100208.40
2022-11-30T22:01:35.528Z,100205.60
2022-11-30T22:04:05.309Z,100202.40
2022-11-30T22:06:35.476Z,100200.80
2022-11-30T22:09:09.242Z,100198.80
2022-11-30T22:11:40.187Z,100199.00
2022-11-30T22:14:12.163Z,100194.40
2022-11-30T22:16:38.726Z,100193.60
2022-11-30T22:19:06.951Z,100192.60
2022-11-30T22:21:34.122Z,100194.80
2022-11-30T22:24:10.993Z,100197.20
2022-11-30T22:26:39.580Z,100194.80
2022-11-30T22:29:11.478Z,100194.40
2022-11-30T22:31:41.199Z,100196.20
2022-11-30T22:34:08.639Z,100190.80
2022-11-30T22:36:40.560Z,100193.40
2022-11-30T22:39:14.557Z,100195.20
2022-11-30T22:41:43.282Z,100195.00
2022-11-30T22:44:15.360Z,100191.60
2022-11-30T22:46:44.294Z,100194.40
2022-11-30T22:49:20.344Z,100188.60
2022-11-30T22:51:47.514Z,100193.40
2022-11-30T22:54:14.056Z,100188.80
2022-11-30T22:56:41.516Z,100188.20
2022-11-30T22:59:11.341Z,100188.80
2022-11-30T23:01:43.325Z,100189.20
2022-11-30T23:04:13.539Z,100191.60
2022-11-30T23:06:42.595Z,100186.80
2022-11-30T23:09:14.595Z,100191.40
2022-11-30T23:11:41.575Z,100192.20
2022-11-30T23:14:08.890Z,100198.60
2022-11-30T23:16:39.358Z,100197.20
2022-11-30T23:19:06.508Z,100188.60
2022-11-30T23:21:41.665Z,100193.20
2022-11-30T23:24:13.339Z,100189.00
2022-11-30T23:26:40.365Z,100187.40
2022-11-30T23:29:12.275Z,100185.40
2022-11-30T23:31:41.510Z,100182.20
2022-11-30T23:34:15.962Z,100182.80
2022-11-30T23:36:42.699Z,100181.00
2022-11-30T23:39:14.604Z,100177.00
2022-11-30T23:41:42.192Z,100176.80
2022-11-30T23:44:10.495Z,100175.20
2022-11-30T23:46:37.183Z,100173.60
2022-11-30T23:49:04.090Z,100172.00
2022-11-30T23:51:30.734Z,100174.60
2022-11-30T23:53:57.708Z,100176.00
2022-11-30T23:56:24.755Z,100175.20
2022-11-30T23:58:51.848Z,100172.60
